Time;durP1;ratioP1;P1;durP2;ratioP2;P2;SDS_P1;SDS_P2;PMS_P1;PMS_P2;Temp;Humidity;BMP_temperature;BMP_pressure;BME280_temperature;BME280_humidity;BME280_pressure;Samples;Min_cycle;Max_cycle;Signal;HPM_P1;HPM_P2
2022/02/15 00:01:16;;;;;;;79.35;36.28;;;5.60;60.00;;;;;;4997363;28;20072;-62
2022/02/15 00:03:42;;;;;;;77.57;35.92;;;5.60;60.00;;;;;;5014389;28;20518;-62
2022/02/15 00:06:08;;;;;;;68.07;31.70;;;5.60;60.00;;;;;;5014167;28;20492;-63
2022/02/15 00:08:34;;;;;;;33.05;18.05;;;5.60;60.00;;;;;;5013466;28;20034;-62
2022/02/15 00:10:59;;;;;;;34.65;18.75;;;5.60;60.00;;;;;;5014667;28;20108;-61
2022/02/15 00:13:25;;;;;;;33.83;19.33;;;5.60;60.20;;;;;;5015076;28;20442;-62
2022/02/15 00:15:51;;;;;;;32.10;18.08;;;5.60;60.30;;;;;;5014900;28;20026;-63
2022/02/15 00:18:17;;;;;;;35.85;19.92;;;5.60;60.50;;;;;;5015050;28;20022;-61
2022/02/15 00:20:44;;;;;;;27.67;17.15;;;5.50;60.60;;;;;;5014255;28;20026;-62
2022/02/15 00:23:10;;;;;;;29.58;17.17;;;5.50;60.50;;;;;;5015299;28;20145;-62
2022/02/15 00:25:36;;;;;;;31.95;17.23;;;5.50;60.40;;;;;;5014152;28;20058;-63
2022/02/15 00:28:02;;;;;;;40.20;23.35;;;5.40;60.40;;;;;;5014832;28;20457;-62
2022/02/15 00:30:28;;;;;;;38.83;24.42;;;5.40;60.40;;;;;;5015194;28;20030;-62
2022/02/15 00:32:53;;;;;;;37.38;21.00;;;5.40;60.40;;;;;;5014358;28;20033;-63
2022/02/15 00:35:19;;;;;;;32.45;17.88;;;5.40;60.30;;;;;;5014805;28;20024;-62
2022/02/15 00:37:45;;;;;;;31.30;17.90;;;5.40;60.40;;;;;;5013974;28;20030;-63
2022/02/15 00:40:12;;;;;;;33.97;21.45;;;5.40;60.60;;;;;;5014263;28;20038;-63
2022/02/15 00:42:39;;;;;;;32.47;17.38;;;5.40;61.00;;;;;;5013740;28;20030;-62
2022/02/15 00:45:06;;;;;;;28.95;16.48;;;5.40;60.90;;;;;;5014356;28;20029;-63
2022/02/15 00:47:32;;;;;;;31.35;16.40;;;5.40;60.70;;;;;;5012570;28;20022;-64
2022/02/15 00:49:58;;;;;;;34.00;16.45;;;5.40;61.10;;;;;;5013856;28;20036;-62
2022/02/15 00:52:25;;;;;;;27.00;16.27;;;5.40;62.40;;;;;;5013704;28;20030;-65
2022/02/15 00:54:51;;;;;;;27.33;16.63;;;5.40;62.10;;;;;;5013046;28;20084;-63
2022/02/15 00:57:17;;;;;;;32.63;17.63;;;5.40;61.90;;;;;;5012652;28;20101;-63
2022/02/15 00:59:43;;;;;;;34.15;18.20;;;5.40;63.00;;;;;;5012477;28;20545;-61
2022/02/15 01:02:09;;;;;;;32.00;17.55;;;5.40;63.20;;;;;;5013415;28;20037;-63
2022/02/15 01:04:34;;;;;;;25.63;16.40;;;5.40;64.20;;;;;;5012694;28;20061;-62
2022/02/15 01:07:00;;;;;;;31.60;19.98;;;5.50;63.40;;;;;;5013049;28;20435;-63
2022/02/15 01:09:26;;;;;;;32.30;21.58;;;5.50;64.90;;;;;;5013223;28;20026;-63
2022/02/15 01:11:51;;;;;;;34.83;20.23;;;5.40;67.50;;;;;;5012214;28;20246;-62
2022/02/15 01:14:18;;;;;;;31.83;20.92;;;5.40;67.70;;;;;;5013186;28;20029;-64
2022/02/15 01:16:44;;;;;;;35.30;21.60;;;5.40;68.70;;;;;;5012384;28;20026;-62
2022/02/15 01:19:10;;;;;;;33.30;21.13;;;5.30;68.70;;;;;;5012253;28;20511;-63
2022/02/15 01:21:36;;;;;;;33.03;21.55;;;5.40;68.80;;;;;;5011818;28;20038;-63
2022/02/15 01:24:02;;;;;;;32.28;22.15;;;5.40;68.90;;;;;;5012442;28;20030;-62
2022/02/15 01:26:28;;;;;;;32.88;21.13;;;5.40;69.10;;;;;;4994798;28;20441;-62
2022/02/15 01:28:53;;;;;;;31.98;20.83;;;5.30;70.20;;;;;;5012047;28;20029;-63
2022/02/15 01:31:19;;;;;;;30.17;20.88;;;5.30;70.00;;;;;;5012716;28;20273;-62
2022/02/15 01:33:45;;;;;;;28.33;17.40;;;5.30;70.00;;;;;;5012479;28;20022;-62
2022/02/15 01:36:11;;;;;;;27.60;15.18;;;5.40;69.20;;;;;;5012900;28;20033;-62
2022/02/15 01:38:37;;;;;;;25.15;13.88;;;5.30;66.90;;;;;;5010825;28;20026;-62
2022/02/15 01:41:24;;;;;;;25.88;15.10;;;5.30;65.60;;;;;;5012697;28;20088;-62
2022/02/15 01:43:49;;;;;;;26.02;14.55;;;5.20;64.80;;;;;;5012454;28;20026;-62
2022/02/15 01:46:16;;;;;;;26.35;15.02;;;5.20;64.20;;;;;;4994953;28;20465;-62
2022/02/15 01:48:43;;;;;;;25.83;15.10;;;5.10;63.90;;;;;;5012567;28;20488;-63
2022/02/15 01:53:53;;;;;;;28.25;14.73;;;5.10;63.50;;;;;;5012286;28;20425;-62
2022/02/15 01:56:19;;;;;;;25.90;14.57;;;5.00;63.40;;;;;;5012405;28;20026;-62
2022/02/15 01:58:45;;;;;;;24.52;14.88;;;5.00;63.40;;;;;;5012101;28;20109;-61
2022/02/15 02:01:11;;;;;;;23.83;14.43;;;5.00;63.40;;;;;;5012263;28;20061;-61
2022/02/15 02:03:37;;;;;;;26.40;15.35;;;5.00;63.50;;;;;;5011671;28;20025;-62
2022/02/15 02:06:02;;;;;;;33.72;18.17;;;5.00;63.60;;;;;;5012489;28;20373;-62
2022/02/15 02:08:31;;;;;;;40.58;20.80;;;5.00;63.80;;;;;;5012203;28;20389;-61
2022/02/15 02:10:58;;;;;;;32.75;16.58;;;5.00;63.80;;;;;;5012046;28;20018;-61
2022/02/15 02:13:24;;;;;;;34.22;19.90;;;5.10;63.80;;;;;;5012423;28;20022;-62
2022/02/15 02:15:49;;;;;;;25.67;15.95;;;5.10;63.80;;;;;;5011637;28;20030;-63
2022/02/15 02:18:16;;;;;;;25.77;15.23;;;5.10;63.90;;;;;;5012127;28;20461;-63
2022/02/15 02:20:42;;;;;;;26.40;15.38;;;5.20;63.80;;;;;;5011476;28;20472;-62
2022/02/15 02:23:12;;;;;;;26.50;15.48;;;5.20;63.70;;;;;;5011844;28;20026;-62
2022/02/15 02:25:38;;;;;;;31.50;17.73;;;5.20;63.50;;;;;;5011202;28;20053;-63
2022/02/15 02:28:05;;;;;;;27.17;17.15;;;5.20;63.60;;;;;;4994466;28;20392;-62
2022/02/15 02:30:30;;;;;;;28.60;18.98;;;5.20;64.30;;;;;;5012046;28;20030;-62
2022/02/15 02:32:56;;;;;;;31.80;18.70;;;5.20;64.60;;;;;;5011218;28;20034;-63
2022/02/15 02:35:22;;;;;;;29.33;18.45;;;5.20;65.10;;;;;;4994644;28;20026;-62
2022/02/15 02:37:49;;;;;;;31.02;20.05;;;5.20;65.10;;;;;;5011422;28;20498;-62
2022/02/15 02:40:15;;;;;;;30.45;19.25;;;5.30;66.10;;;;;;5010890;28;20481;-61
2022/02/15 02:42:42;;;;;;;27.25;17.55;;;5.30;67.90;;;;;;5011155;28;20116;-61
2022/02/15 02:45:12;;;;;;;27.48;18.05;;;5.30;66.50;;;;;;5011912;28;20079;-62
2022/02/15 02:47:40;;;;;;;30.38;18.88;;;5.30;66.10;;;;;;5011768;28;20054;-62
2022/02/15 02:50:07;;;;;;;31.10;18.75;;;5.40;66.90;;;;;;4994095;28;20393;-62
2022/02/15 02:52:32;;;;;;;27.35;17.95;;;5.40;67.10;;;;;;5011247;28;20030;-62
2022/02/15 02:54:58;;;;;;;30.52;17.00;;;5.40;67.10;;;;;;5011381;28;20045;-63
2022/02/15 02:57:24;;;;;;;29.05;15.13;;;5.50;67.00;;;;;;5011597;28;20018;-62
2022/02/15 02:59:49;;;;;;;24.95;14.27;;;5.50;66.10;;;;;;5011487;28;20128;-62
2022/02/15 03:02:16;;;;;;;23.23;13.18;;;5.40;64.70;;;;;;4994546;28;20037;-62
2022/02/15 03:04:42;;;;;;;25.08;13.60;;;5.40;64.00;;;;;;4993792;28;20030;-63
2022/02/15 03:07:09;;;;;;;22.50;13.88;;;5.30;63.90;;;;;;5011523;28;20108;-62
2022/02/15 03:09:35;;;;;;;22.55;13.60;;;5.30;64.00;;;;;;5010850;28;20040;-65
2022/02/15 03:12:01;;;;;;;23.02;13.68;;;5.40;64.00;;;;;;5011453;28;20030;-61
2022/02/15 03:14:27;;;;;;;22.92;13.57;;;5.40;63.80;;;;;;5011239;28;20056;-62
2022/02/15 03:16:52;;;;;;;24.38;14.75;;;5.40;63.70;;;;;;5011065;28;20423;-62
2022/02/15 03:19:18;;;;;;;23.42;14.23;;;5.40;64.00;;;;;;4993810;28;20377;-63
2022/02/15 03:21:44;;;;;;;23.92;14.20;;;5.50;64.20;;;;;;5010809;28;20032;-63
2022/02/15 03:24:10;;;;;;;21.65;13.23;;;5.50;64.10;;;;;;4993976;28;20030;-63
2022/02/15 03:26:36;;;;;;;21.52;13.55;;;5.40;64.00;;;;;;5010615;28;20497;-63
2022/02/15 03:29:03;;;;;;;22.88;13.85;;;5.40;64.10;;;;;;4993888;28;20044;-65
2022/02/15 03:31:28;;;;;;;23.45;13.07;;;5.40;64.20;;;;;;5011323;28;20492;-62
2022/02/15 03:33:54;;;;;;;19.63;13.13;;;5.30;64.20;;;;;;5010960;28;20030;-61
2022/02/15 03:36:20;;;;;;;21.40;13.75;;;5.30;64.30;;;;;;5011482;28;20026;-60
2022/02/15 03:38:46;;;;;;;21.73;13.55;;;5.30;64.40;;;;;;4993367;28;20034;-62
2022/02/15 03:44:16;;;;;;;21.63;13.00;;;5.30;64.40;;;;;;4969956;28;20031;-64
2022/02/15 03:46:41;;;;;;;23.52;14.60;;;5.30;64.30;;;;;;4969553;28;20035;-62
2022/02/15 03:49:11;;;;;;;22.23;13.73;;;5.40;64.40;;;;;;4988867;28;20542;-61
2022/02/15 03:51:40;;;;;;;22.00;14.30;;;5.40;64.60;;;;;;4994969;28;20073;-63
2022/02/15 03:54:07;;;;;;;26.00;14.48;;;5.40;64.80;;;;;;5015058;28;20026;-65
2022/02/15 03:56:35;;;;;;;24.50;14.27;;;5.40;64.80;;;;;;5014791;28;20028;-62
2022/02/15 03:59:02;;;;;;;21.35;13.73;;;5.50;65.60;;;;;;4996774;28;20045;-62
2022/02/15 04:01:27;;;;;;;25.73;13.90;;;5.50;65.70;;;;;;5014613;28;20484;-64
2022/02/15 04:04:12;;;;;;;27.13;14.95;;;5.50;65.30;;;;;;5014004;28;20026;-65
2022/02/15 04:06:38;;;;;;;23.23;13.55;;;5.50;65.20;;;;;;4996258;28;20026;-63
2022/02/15 04:09:03;;;;;;;24.25;14.30;;;5.50;65.20;;;;;;5014234;28;20045;-61
2022/02/15 04:11:29;;;;;;;23.60;14.38;;;5.50;65.10;;;;;;5014922;28;20038;-64
2022/02/15 04:13:55;;;;;;;25.70;14.10;;;5.60;65.10;;;;;;5013551;28;20519;-62
2022/02/15 04:16:21;;;;;;;22.35;13.98;;;5.60;65.10;;;;;;4996498;28;20457;-62
2022/02/15 04:18:48;;;;;;;25.40;14.63;;;5.70;65.00;;;;;;5013794;28;20218;-62
2022/02/15 04:21:15;;;;;;;27.92;14.48;;;5.70;64.80;;;;;;5014280;28;20401;-62
2022/02/15 04:23:41;;;;;;;23.60;14.93;;;5.80;64.90;;;;;;5013926;28;20030;-63
2022/02/15 04:26:07;;;;;;;22.75;15.35;;;5.80;65.00;;;;;;5014276;28;20092;-63
2022/02/15 04:28:33;;;;;;;28.42;14.73;;;5.90;65.10;;;;;;5014215;28;20025;-63
2022/02/15 04:30:59;;;;;;;20.45;14.40;;;6.00;65.10;;;;;;5013856;28;20108;-61
2022/02/15 04:33:24;;;;;;;23.63;15.45;;;6.00;65.10;;;;;;5013990;28;20460;-61
2022/02/15 04:35:50;;;;;;;20.88;14.63;;;6.00;65.10;;;;;;4996241;28;20380;-61
2022/02/15 04:38:16;;;;;;;27.13;15.93;;;6.00;65.50;;;;;;5013828;28;20030;-61
2022/02/15 04:40:42;;;;;;;22.42;15.20;;;6.00;65.10;;;;;;5013442;28;20125;-62
2022/02/15 04:43:08;;;;;;;23.60;16.33;;;6.00;65.00;;;;;;5013778;28;20486;-62
2022/02/15 04:45:33;;;;;;;26.65;15.95;;;5.90;64.50;;;;;;5013584;28;20022;-63
2022/02/15 04:47:59;;;;;;;29.52;17.35;;;5.90;64.20;;;;;;5013458;28;20061;-61
2022/02/15 04:50:25;;;;;;;26.88;15.57;;;5.90;64.00;;;;;;5013691;28;20473;-63
2022/02/15 04:52:50;;;;;;;23.08;16.02;;;5.80;63.80;;;;;;4995467;28;20030;-62
2022/02/15 04:55:17;;;;;;;26.77;16.35;;;5.80;63.80;;;;;;4996054;28;20026;-63
2022/02/15 04:58:01;;;;;;;24.67;16.40;;;5.70;63.80;;;;;;5013121;28;20022;-62
2022/02/15 05:00:27;;;;;;;28.30;16.38;;;5.80;63.90;;;;;;4995991;28;20037;-63
2022/02/15 05:02:53;;;;;;;24.75;15.93;;;5.80;63.70;;;;;;5011896;28;20033;-62
2022/02/15 05:05:18;;;;;;;21.50;14.65;;;5.80;63.50;;;;;;5013589;28;20420;-61
2022/02/15 05:07:44;;;;;;;24.60;16.05;;;5.70;63.20;;;;;;4995039;28;20103;-63
2022/02/15 05:10:10;;;;;;;26.02;15.43;;;5.70;63.10;;;;;;5013397;28;20108;-62
2022/02/15 05:12:37;;;;;;;27.08;16.42;;;5.70;63.00;;;;;;5012731;28;20511;-64
2022/02/15 05:15:09;;;;;;;27.00;15.73;;;5.80;63.00;;;;;;4995666;28;20384;-61
2022/02/15 05:17:37;;;;;;;29.65;16.30;;;5.80;62.70;;;;;;5012697;28;20025;-67
2022/02/15 05:20:04;;;;;;;25.27;14.38;;;5.80;62.40;;;;;;5012879;28;20030;-61
2022/02/15 05:22:30;;;;;;;25.58;14.95;;;5.80;62.40;;;;;;5012833;28;20461;-61
2022/02/15 05:24:56;;;;;;;25.63;15.63;;;5.80;62.20;;;;;;5012015;28;20033;-61
2022/02/15 05:27:21;;;;;;;25.92;15.15;;;5.70;62.20;;;;;;5012853;28;20030;-64
2022/02/15 05:29:47;;;;;;;28.58;15.82;;;5.70;62.30;;;;;;5012125;28;20116;-62
2022/02/15 05:32:13;;;;;;;28.00;15.60;;;5.70;62.60;;;;;;5012901;28;20384;-62
2022/02/15 05:34:42;;;;;;;27.02;15.13;;;5.70;62.50;;;;;;5012666;28;20021;-62
2022/02/15 05:37:08;;;;;;;26.40;14.75;;;5.70;62.50;;;;;;4995097;28;20133;-63
2022/02/15 05:39:33;;;;;;;37.88;16.00;;;5.80;62.50;;;;;;5012446;28;20084;-62
2022/02/15 05:41:59;;;;;;;27.70;15.70;;;5.80;62.50;;;;;;5012451;28;20057;-62
2022/02/15 05:44:24;;;;;;;28.38;16.17;;;5.80;62.50;;;;;;5013052;28;20033;-62
2022/02/15 05:46:50;;;;;;;31.67;16.70;;;5.90;62.60;;;;;;5012216;28;20018;-62
2022/02/15 05:49:16;;;;;;;26.08;15.70;;;5.90;62.40;;;;;;4995425;28;20088;-62
2022/02/15 05:51:41;;;;;;;24.98;16.17;;;5.90;62.40;;;;;;5012420;28;20026;-64
2022/02/15 05:54:07;;;;;;;27.77;16.13;;;5.90;62.50;;;;;;5010734;28;20234;-64
2022/02/15 05:56:33;;;;;;;24.13;15.98;;;5.90;62.40;;;;;;5011633;28;20022;-64
2022/02/15 05:58:59;;;;;;;28.75;16.58;;;5.90;62.40;;;;;;5011521;28;20066;-62
2022/02/15 06:01:24;;;;;;;33.75;16.67;;;5.90;62.50;;;;;;5011703;28;20038;-63
2022/02/15 06:06:34;;;;;;;31.92;16.58;;;6.00;62.50;;;;;;5012261;28;20117;-63
2022/02/15 06:09:00;;;;;;;31.63;15.98;;;5.90;62.50;;;;;;5011655;28;20065;-62
2022/02/15 06:11:26;;;;;;;45.42;17.73;;;6.00;62.50;;;;;;5012290;28;20025;-63
2022/02/15 06:13:55;;;;;;;43.55;17.50;;;6.00;62.40;;;;;;5011715;28;20025;-62
2022/02/15 06:16:22;;;;;;;28.35;16.05;;;6.00;62.40;;;;;;5012183;28;20024;-62
2022/02/15 06:18:48;;;;;;;35.22;16.67;;;6.00;62.30;;;;;;5011730;28;20026;-63
2022/02/15 06:21:13;;;;;;;27.00;15.57;;;6.00;62.30;;;;;;5012391;28;20022;-62
2022/02/15 06:23:39;;;;;;;30.15;16.55;;;6.00;62.30;;;;;;4993985;28;20041;-63
2022/02/15 06:26:05;;;;;;;33.40;16.88;;;6.00;62.30;;;;;;5012178;28;20401;-63
2022/02/15 06:28:30;;;;;;;29.45;16.73;;;6.00;62.30;;;;;;4994480;28;20026;-63
2022/02/15 06:30:56;;;;;;;27.98;16.80;;;6.00;62.40;;;;;;5011753;28;20025;-63
2022/02/15 06:33:23;;;;;;;30.02;17.05;;;6.00;62.40;;;;;;5011874;28;20037;-64
2022/02/15 06:35:49;;;;;;;27.52;16.80;;;6.00;62.40;;;;;;4993775;28;20037;-63
2022/02/15 06:38:15;;;;;;;34.45;16.55;;;6.10;62.40;;;;;;5011711;28;20018;-64
2022/02/15 06:40:41;;;;;;;31.10;16.20;;;6.10;62.20;;;;;;5011419;28;20354;-64
2022/02/15 06:43:07;;;;;;;36.90;18.35;;;6.10;62.10;;;;;;4994246;28;20473;-63
2022/02/15 06:45:33;;;;;;;32.42;17.27;;;6.10;62.10;;;;;;5011530;28;20029;-63
2022/02/15 06:47:58;;;;;;;31.27;17.10;;;6.10;62.00;;;;;;5011164;28;20022;-64
2022/02/15 06:50:43;;;;;;;33.92;18.05;;;6.00;62.00;;;;;;5011741;28;20026;-64
2022/02/15 06:53:08;;;;;;;34.22;17.35;;;6.00;62.30;;;;;;5011774;28;20107;-65
2022/02/15 06:55:34;;;;;;;30.80;17.13;;;6.10;62.30;;;;;;5011367;28;20057;-62
2022/02/15 06:58:00;;;;;;;38.63;17.15;;;6.10;62.30;;;;;;5010670;28;20097;-64
2022/02/15 07:00:25;;;;;;;30.58;17.25;;;6.10;62.20;;;;;;5011287;28;20026;-63
2022/02/15 07:02:51;;;;;;;171.70;32.00;;;6.20;62.00;;;;;;5010795;28;20034;-64
2022/02/15 07:05:17;;;;;;;84.13;24.13;;;6.20;62.00;;;;;;5012236;28;20030;-63
2022/02/15 07:07:43;;;;;;;53.00;22.00;;;6.30;62.10;;;;;;5011136;28;20029;-63
2022/02/15 07:10:09;;;;;;;39.53;20.02;;;6.30;62.00;;;;;;5011196;28;20044;-64
2022/02/15 07:12:35;;;;;;;38.10;19.05;;;6.40;61.90;;;;;;5011359;28;20100;-64
2022/02/15 07:15:00;;;;;;;36.40;18.95;;;6.50;61.80;;;;;;4993385;28;20481;-64
2022/02/15 07:17:27;;;;;;;34.47;19.17;;;6.60;61.70;;;;;;5011299;28;20446;-64
2022/02/15 07:19:53;;;;;;;38.92;19.10;;;6.70;61.30;;;;;;5010937;28;20034;-64
2022/02/15 07:22:20;;;;;;;39.22;20.08;;;6.80;61.00;;;;;;5011739;28;20489;-64
2022/02/15 07:24:46;;;;;;;33.70;19.38;;;6.90;60.80;;;;;;4993230;28;20044;-64
2022/02/15 07:27:11;;;;;;;27.13;18.55;;;7.10;60.80;;;;;;5013882;28;20058;-64
2022/02/15 07:29:37;;;;;;;31.90;19.98;;;7.20;60.00;;;;;;5014712;28;20034;-64
2022/02/15 07:32:03;;;;;;;35.33;18.83;;;7.30;59.60;;;;;;4996939;28;20045;-64
2022/02/15 07:34:29;;;;;;;32.95;18.30;;;7.40;59.20;;;;;;4996650;28;20531;-65
2022/02/15 07:36:55;;;;;;;39.67;20.27;;;7.50;59.00;;;;;;5014224;28;20025;-65
2022/02/15 07:39:21;;;;;;;35.53;20.60;;;7.50;58.80;;;;;;5014695;28;20492;-64
2022/02/15 07:41:49;;;;;;;33.08;20.20;;;7.50;58.40;;;;;;5013150;28;20388;-65
2022/02/15 07:44:16;;;;;;;33.00;21.00;;;7.50;59.20;;;;;;5014681;28;20026;-65
2022/02/15 07:46:44;;;;;;;35.78;21.05;;;7.50;58.80;;;;;;4995717;28;20033;-65
2022/02/15 07:49:10;;;;;;;40.42;22.25;;;7.50;58.90;;;;;;5014368;28;20072;-65
2022/02/15 07:51:36;;;;;;;44.95;22.20;;;7.50;59.00;;;;;;5014829;28;20109;-66
2022/02/15 07:54:02;;;;;;;37.33;23.08;;;7.60;59.20;;;;;;4995777;28;20117;-66
2022/02/15 07:56:28;;;;;;;34.55;22.58;;;7.70;58.80;;;;;;5014972;28;20029;-66
2022/02/15 07:58:54;;;;;;;38.65;22.23;;;7.70;59.00;;;;;;5015427;28;20037;-66
2022/02/15 08:01:19;;;;;;;33.75;21.45;;;7.80;59.10;;;;;;4996808;28;20396;-65
2022/02/15 08:03:45;;;;;;;49.08;23.60;;;7.90;59.10;;;;;;5013735;28;20148;-65
2022/02/15 08:06:11;;;;;;;49.53;23.05;;;8.00;59.20;;;;;;4996359;28;20527;-65
2022/02/15 08:08:36;;;;;;;36.33;22.52;;;8.10;59.10;;;;;;4995346;28;20393;-66
2022/02/15 08:11:02;;;;;;;34.38;21.10;;;8.30;58.70;;;;;;5013233;28;20025;-65
2022/02/15 08:13:34;;;;;;;35.85;21.13;;;8.80;57.90;;;;;;5014599;28;20058;-65
2022/02/15 08:16:01;;;;;;;39.40;23.20;;;9.20;57.00;;;;;;5012941;28;20227;-66
2022/02/15 08:18:26;;;;;;;35.38;21.85;;;9.40;56.00;;;;;;5014167;28;20033;-66
2022/02/15 08:20:52;;;;;;;43.33;21.83;;;9.50;56.30;;;;;;5012956;28;20042;-66
2022/02/15 08:23:19;;;;;;;28.27;20.80;;;10.00;55.00;;;;;;5013411;28;20029;-66
2022/02/15 08:25:45;;;;;;;43.42;22.10;;;9.90;53.70;;;;;;5011901;28;20524;-67
2022/02/15 08:28:13;;;;;;;35.70;21.73;;;9.80;53.80;;;;;;5013611;28;20030;-65
2022/02/15 08:30:40;;;;;;;37.35;23.25;;;9.60;54.00;;;;;;5013657;28;20044;-65
2022/02/15 08:33:06;;;;;;;35.38;21.70;;;9.50;54.10;;;;;;4995325;28;20034;-65
2022/02/15 08:35:32;;;;;;;34.67;23.35;;;9.50;54.70;;;;;;4995590;28;20129;-68
2022/02/15 08:37:57;;;;;;;41.40;23.40;;;9.50;55.00;;;;;;5009884;28;20030;-66
2022/02/15 08:40:23;;;;;;;41.70;24.42;;;9.30;55.60;;;;;;4995061;28;20030;-66
2022/02/15 08:42:49;;;;;;;36.00;23.10;;;9.30;56.00;;;;;;4995212;28;20030;-64
2022/02/15 08:45:15;;;;;;;43.33;24.42;;;9.30;56.10;;;;;;5013591;28;20116;-65
2022/02/15 08:47:41;;;;;;;36.88;23.73;;;9.30;56.20;;;;;;5013622;28;20416;-65
2022/02/15 08:50:08;;;;;;;34.45;23.52;;;9.20;57.00;;;;;;5013658;28;20030;-67
2022/02/15 08:52:36;;;;;;;44.90;23.48;;;9.20;57.30;;;;;;5012406;28;20022;-67
2022/02/15 08:55:05;;;;;;;41.67;23.58;;;9.20;56.70;;;;;;5011269;28;20121;-69
2022/02/15 08:57:31;;;;;;;36.78;23.02;;;9.20;56.30;;;;;;5011120;28;20017;-65
2022/02/15 08:59:59;;;;;;;31.88;21.88;;;9.10;56.30;;;;;;5011634;28;20038;-65
2022/02/15 09:02:26;;;;;;;36.28;23.30;;;9.10;56.50;;;;;;5012173;28;20060;-66
2022/02/15 09:04:52;;;;;;;36.30;22.52;;;9.00;57.10;;;;;;4994776;28;20400;-65
2022/02/15 09:07:18;;;;;;;38.88;24.75;;;9.00;56.60;;;;;;5012880;28;20025;-66
2022/02/15 09:09:45;;;;;;;42.30;23.65;;;9.00;56.90;;;;;;4991884;28;20032;-66
2022/02/15 09:12:11;;;;;;;42.55;25.73;;;9.00;57.30;;;;;;5010908;28;20026;-64
2022/02/15 09:14:38;;;;;;;34.63;24.05;;;9.00;57.50;;;;;;5011014;28;20045;-65
2022/02/15 09:17:04;;;;;;;39.47;23.27;;;9.00;57.60;;;;;;4994204;28;20026;-66
2022/02/15 09:19:30;;;;;;;42.45;23.23;;;9.10;58.00;;;;;;4994508;28;20459;-75
2022/02/15 09:21:56;;;;;;;37.75;24.67;;;8.90;58.40;;;;;;4993000;28;20057;-76
2022/02/15 09:24:23;;;;;;;47.33;24.67;;;9.00;58.60;;;;;;5012974;28;20025;-75
2022/02/15 09:26:49;;;;;;;45.00;26.88;;;9.10;58.90;;;;;;4994655;28;20092;-68
2022/02/15 09:29:16;;;;;;;37.65;26.52;;;9.10;59.00;;;;;;5011866;28;20407;-74
2022/02/15 09:31:42;;;;;;;41.70;27.85;;;9.10;59.20;;;;;;5011400;28;20113;-72
2022/02/15 09:34:08;;;;;;;41.67;27.88;;;9.10;59.20;;;;;;5012065;28;20037;-74
2022/02/15 09:36:35;;;;;;;45.15;28.25;;;9.20;59.10;;;;;;5012832;28;20037;-73
2022/02/15 09:39:02;;;;;;;37.65;25.55;;;9.30;59.10;;;;;;5011991;28;20029;-70
2022/02/15 09:41:33;;;;;;;44.35;27.17;;;9.20;59.20;;;;;;4994363;28;20346;-71
2022/02/15 09:44:04;;;;;;;40.13;24.00;;;9.20;59.30;;;;;;5010108;28;20022;-73
2022/02/15 09:46:30;;;;;;;37.85;23.02;;;9.20;59.20;;;;;;4995186;28;20034;-74
2022/02/15 09:48:56;;;;;;;52.72;24.45;;;9.30;58.90;;;;;;4994264;28;20448;-72
2022/02/15 09:51:23;;;;;;;32.30;22.08;;;9.40;58.80;;;;;;5012421;28;20083;-72
2022/02/15 09:53:50;;;;;;;30.00;21.60;;;9.40;58.70;;;;;;5010991;28;20021;-74
2022/02/15 09:56:16;;;;;;;32.70;22.40;;;9.40;58.70;;;;;;5011702;28;20045;-73
2022/02/15 09:58:42;;;;;;;32.90;22.85;;;9.60;58.60;;;;;;5012424;28;20070;-71
2022/02/15 10:01:16;;;;;;;30.98;21.48;;;9.70;58.40;;;;;;5012699;28;20026;-72
2022/02/15 10:03:58;;;;;;;32.15;21.98;;;9.80;58.20;;;;;;5011006;28;20113;-71
2022/02/15 10:06:29;;;;;;;32.60;22.42;;;9.80;58.10;;;;;;4994488;28;20026;-72
2022/02/15 10:09:19;;;;;;;32.05;23.13;;;9.90;58.10;;;;;;4994159;28;20032;-73
2022/02/15 10:11:45;;;;;;;37.65;23.13;;;10.00;57.90;;;;;;4992951;28;20140;-72
2022/02/15 10:14:11;;;;;;;31.60;22.95;;;10.10;57.90;;;;;;5011725;28;20021;-72
2022/02/15 10:16:51;;;;;;;35.30;24.20;;;10.20;57.80;;;;;;4994692;28;20464;-72
2022/02/15 10:19:29;;;;;;;35.33;22.75;;;10.20;57.70;;;;;;5011618;28;20060;-73
2022/02/15 10:21:57;;;;;;;33.80;21.70;;;10.30;57.40;;;;;;5010234;28;20022;-72
2022/02/15 10:24:28;;;;;;;26.90;19.98;;;10.50;56.90;;;;;;5011625;28;20018;-74
2022/02/15 10:26:55;;;;;;;30.33;21.92;;;10.60;56.20;;;;;;5010687;28;20046;-73
2022/02/15 10:29:22;;;;;;;30.10;22.52;;;10.60;55.90;;;;;;4993601;28;20040;-72
2022/02/15 10:31:47;;;;;;;34.70;23.05;;;10.60;56.00;;;;;;5010212;28;20195;-73
2022/02/15 10:34:13;;;;;;;31.90;23.17;;;10.70;56.10;;;;;;4993582;28;20130;-73
2022/02/15 10:36:39;;;;;;;31.30;21.90;;;10.70;56.00;;;;;;5011361;28;20022;-74
2022/02/15 10:39:04;;;;;;;31.00;22.73;;;10.80;56.10;;;;;;4993506;28;20032;-72
2022/02/15 10:41:34;;;;;;;33.33;22.88;;;10.90;55.80;;;;;;4993911;28;20022;-74
2022/02/15 10:44:00;;;;;;;32.05;21.48;;;10.90;56.00;;;;;;5010802;28;20424;-71
2022/02/15 10:46:30;;;;;;;28.75;21.95;;;11.00;55.90;;;;;;5011706;28;20017;-71
2022/02/15 10:48:58;;;;;;;35.10;23.63;;;11.10;55.80;;;;;;5011560;28;20061;-73
2022/02/15 10:51:26;;;;;;;39.00;24.05;;;11.20;55.70;;;;;;5011652;28;20025;-73
2022/02/15 10:53:52;;;;;;;40.92;24.10;;;11.40;55.60;;;;;;5008323;28;20026;-76
2022/02/15 10:56:18;;;;;;;37.72;25.90;;;11.40;55.40;;;;;;5012142;28;20029;-74
2022/02/15 10:58:48;;;;;;;38.97;23.02;;;11.40;55.40;;;;;;5010176;28;20038;-71
2022/02/15 11:01:13;;;;;;;39.28;24.25;;;11.50;55.50;;;;;;5013812;28;20026;-73
2022/02/15 11:03:41;;;;;;;29.75;21.98;;;11.50;55.20;;;;;;5014439;28;20033;-74
2022/02/15 11:06:08;;;;;;;29.95;22.00;;;11.50;54.80;;;;;;5014663;28;20053;-70
2022/02/15 11:08:39;;;;;;;28.05;22.00;;;11.40;55.00;;;;;;4997683;28;20026;-74
2022/02/15 11:11:08;;;;;;;30.67;23.23;;;11.40;55.20;;;;;;4997692;28;20231;-74
2022/02/15 11:13:35;;;;;;;29.95;22.55;;;11.50;54.90;;;;;;4997003;28;20022;-75
2022/02/15 11:16:09;;;;;;;31.77;22.25;;;11.50;55.00;;;;;;4997273;28;20026;-73
2022/02/15 11:18:35;;;;;;;29.10;22.13;;;11.50;55.10;;;;;;5012626;28;20057;-76
2022/02/15 11:21:04;;;;;;;34.88;22.30;;;11.40;55.10;;;;;;5014275;28;20057;-72
2022/02/15 11:23:35;;;;;;;31.55;21.58;;;11.50;55.30;;;;;;5013868;28;20018;-73
2022/02/15 11:26:17;;;;;;;31.60;23.23;;;11.50;55.40;;;;;;5015243;28;20119;-75
2022/02/15 11:28:51;;;;;;;31.02;21.85;;;11.50;55.50;;;;;;4997108;28;20082;-74
2022/02/15 11:31:30;;;;;;;28.02;21.90;;;11.60;55.30;;;;;;4997857;28;20417;-73
2022/02/15 11:34:00;;;;;;;31.70;21.38;;;11.70;55.30;;;;;;4997980;28;20032;-71
2022/02/15 11:36:26;;;;;;;31.15;21.33;;;11.80;55.30;;;;;;5015786;28;20156;-72
2022/02/15 11:38:51;;;;;;;29.67;22.92;;;11.80;54.70;;;;;;5014252;28;20112;-71
2022/02/15 11:41:18;;;;;;;34.00;21.08;;;11.70;54.90;;;;;;5015294;28;20022;-74
2022/02/15 11:44:03;;;;;;;26.02;20.52;;;11.70;55.70;;;;;;4997650;28;20109;-72
2022/02/15 11:46:43;;;;;;;28.25;20.65;;;11.70;55.20;;;;;;5015254;28;20441;-72
2022/02/15 11:49:17;;;;;;;35.97;22.23;;;11.80;55.00;;;;;;4997172;28;20022;-74
2022/02/15 11:51:44;;;;;;;;;;;11.80;55.20;;;;;;5015518;28;20022;-72
2022/02/15 11:54:26;;;;;;;34.25;23.30;;;11.80;54.70;;;;;;4997058;28;19936;-73
2022/02/15 11:56:54;;;;;;;32.10;21.20;;;11.80;55.10;;;;;;5015380;28;20036;-75
2022/02/15 11:59:26;;;;;;;30.10;20.30;;;12.10;54.20;;;;;;5016533;28;20030;-75
2022/02/15 12:01:58;;;;;;;38.63;23.67;;;12.40;53.80;;;;;;4998987;28;20080;-74
2022/02/15 12:04:25;;;;;;;28.40;21.65;;;12.90;52.40;;;;;;5001210;28;20104;-74
2022/02/15 12:06:54;;;;;;;39.58;22.80;;;12.90;52.10;;;;;;4998290;28;20018;-73
2022/02/15 12:09:29;;;;;;;30.05;21.55;;;12.80;52.40;;;;;;5014627;28;20018;-74
2022/02/15 12:11:59;;;;;;;34.42;24.75;;;12.70;52.60;;;;;;5012870;28;20018;-71
2022/02/15 12:14:27;;;;;;;31.65;22.45;;;12.70;52.50;;;;;;5013185;28;20014;-74
2022/02/15 12:16:57;;;;;;;31.40;24.45;;;12.70;52.60;;;;;;4995416;28;20117;-72
2022/02/15 12:19:35;;;;;;;30.23;20.65;;;12.60;52.30;;;;;;4996412;28;20028;-70
2022/02/15 12:22:05;;;;;;;24.58;18.98;;;12.60;52.60;;;;;;5013508;28;20065;-71
2022/02/15 12:24:32;;;;;;;27.58;19.42;;;12.80;52.60;;;;;;5014065;28;20044;-70
2022/02/15 12:27:06;;;;;;;30.70;19.67;;;12.90;52.00;;;;;;4996383;28;20041;-74
2022/02/15 12:29:35;;;;;;;27.23;19.60;;;12.90;51.70;;;;;;4997456;28;20125;-75
2022/02/15 12:32:04;;;;;;;27.65;20.27;;;13.00;51.90;;;;;;5013626;28;20058;-71
2022/02/15 12:34:31;;;;;;;30.77;20.15;;;13.00;51.80;;;;;;5013759;28;20036;-73
2022/02/15 12:37:19;;;;;;;27.25;19.83;;;13.10;51.70;;;;;;5013304;28;20018;-72
2022/02/15 12:39:48;;;;;;;25.65;19.25;;;13.20;51.40;;;;;;4995635;28;20022;-71
2022/02/15 12:42:17;;;;;;;36.90;21.48;;;13.40;51.20;;;;;;4996499;28;20037;-75
2022/02/15 12:44:57;;;;;;;27.38;19.25;;;13.50;51.00;;;;;;4995606;28;20021;-73